sensor_id;sensor_type;location;lat;lon;timestamp;temperature;humidity
59572;DHT22;59406;45.602;11.904;2023-04-12T00:01:35;20.50;84.90
59572;DHT22;59406;45.602;11.904;2023-04-12T00:04:01;20.50;84.70
59572;DHT22;59406;45.602;11.904;2023-04-12T00:06:30;20.50;84.70
59572;DHT22;59406;45.602;11.904;2023-04-12T00:09:00;20.50;84.60
59572;DHT22;59406;45.602;11.904;2023-04-12T00:11:27;20.40;84.80
59572;DHT22;59406;45.602;11.904;2023-04-12T00:13:53;20.50;84.80
59572;DHT22;59406;45.602;11.904;2023-04-12T00:16:20;20.50;84.70
59572;DHT22;59406;45.602;11.904;2023-04-12T00:18:46;20.40;84.80
59572;DHT22;59406;45.602;11.904;2023-04-12T00:21:13;20.40;84.80
59572;DHT22;59406;45.602;11.904;2023-04-12T00:23:44;20.40;84.90
59572;DHT22;59406;45.602;11.904;2023-04-12T00:26:11;20.40;84.80
59572;DHT22;59406;45.602;11.904;2023-04-12T00:28:38;20.40;84.70
59572;DHT22;59406;45.602;11.904;2023-04-12T00:31:04;20.40;84.90
59572;DHT22;59406;45.602;11.904;2023-04-12T00:33:30;20.50;83.40
59572;DHT22;59406;45.602;11.904;2023-04-12T00:35:56;20.40;82.10
59572;DHT22;59406;45.602;11.904;2023-04-12T00:38:21;20.50;81.50
59572;DHT22;59406;45.602;11.904;2023-04-12T00:40:47;20.40;81.40
59572;DHT22;59406;45.602;11.904;2023-04-12T00:43:13;20.40;81.50
59572;DHT22;59406;45.602;11.904;2023-04-12T00:45:46;20.30;80.90
59572;DHT22;59406;45.602;11.904;2023-04-12T00:48:12;20.30;80.10
59572;DHT22;59406;45.602;11.904;2023-04-12T00:50:39;20.30;79.90
59572;DHT22;59406;45.602;11.904;2023-04-12T00:53:10;20.40;79.60
59572;DHT22;59406;45.602;11.904;2023-04-12T00:55:39;20.30;79.10
59572;DHT22;59406;45.602;11.904;2023-04-12T00:58:06;20.30;79.30
59572;DHT22;59406;45.602;11.904;2023-04-12T01:00:33;20.30;79.50
59572;DHT22;59406;45.602;11.904;2023-04-12T01:02:59;20.40;79.40
59572;DHT22;59406;45.602;11.904;2023-04-12T01:05:27;20.40;79.20
59572;DHT22;59406;45.602;11.904;2023-04-12T01:19:03;20.30;78.60
59572;DHT22;59406;45.602;11.904;2023-04-12T01:21:44;20.30;78.50
59572;DHT22;59406;45.602;11.904;2023-04-12T01:24:25;20.20;78.50
59572;DHT22;59406;45.602;11.904;2023-04-12T01:29:29;20.30;79.60
59572;DHT22;59406;45.602;11.904;2023-04-12T01:32:00;20.30;80.10
59572;DHT22;59406;45.602;11.904;2023-04-12T01:34:29;20.20;80.00
59572;DHT22;59406;45.602;11.904;2023-04-12T01:36:58;20.30;80.30
59572;DHT22;59406;45.602;11.904;2023-04-12T01:39:26;20.30;80.40
59572;DHT22;59406;45.602;11.904;2023-04-12T01:41:53;20.20;80.10
59572;DHT22;59406;45.602;11.904;2023-04-12T01:44:19;20.20;79.70
59572;DHT22;59406;45.602;11.904;2023-04-12T01:46:46;20.20;79.10
59572;DHT22;59406;45.602;11.904;2023-04-12T01:49:14;20.20;78.80
59572;DHT22;59406;45.602;11.904;2023-04-12T01:51:54;20.20;78.70
59572;DHT22;59406;45.602;11.904;2023-04-12T01:54:28;20.20;77.70
59572;DHT22;59406;45.602;11.904;2023-04-12T01:57:00;20.20;78.60
59572;DHT22;59406;45.602;11.904;2023-04-12T01:59:33;20.20;78.90
59572;DHT22;59406;45.602;11.904;2023-04-12T02:02:00;20.20;79.10
59572;DHT22;59406;45.602;11.904;2023-04-12T02:04:26;20.30;79.00
59572;DHT22;59406;45.602;11.904;2023-04-12T02:06:53;20.20;79.10
59572;DHT22;59406;45.602;11.904;2023-04-12T02:09:19;20.20;79.50
59572;DHT22;59406;45.602;11.904;2023-04-12T02:11:47;20.20;79.10
59572;DHT22;59406;45.602;11.904;2023-04-12T02:14:14;20.20;78.90
59572;DHT22;59406;45.602;11.904;2023-04-12T02:16:40;20.20;78.60
59572;DHT22;59406;45.602;11.904;2023-04-12T02:19:07;20.20;78.60
59572;DHT22;59406;45.602;11.904;2023-04-12T02:21:40;20.20;79.00
59572;DHT22;59406;45.602;11.904;2023-04-12T02:24:07;20.20;78.40
59572;DHT22;59406;45.602;11.904;2023-04-12T02:26:33;20.10;78.80
59572;DHT22;59406;45.602;11.904;2023-04-12T02:29:00;20.10;79.00
59572;DHT22;59406;45.602;11.904;2023-04-12T02:31:26;20.20;79.10
59572;DHT22;59406;45.602;11.904;2023-04-12T02:33:52;20.20;80.30
59572;DHT22;59406;45.602;11.904;2023-04-12T02:36:18;20.20;80.90
59572;DHT22;59406;45.602;11.904;2023-04-12T02:38:44;20.10;81.40
59572;DHT22;59406;45.602;11.904;2023-04-12T02:41:16;20.10;81.90
59572;DHT22;59406;45.602;11.904;2023-04-12T02:43:42;20.10;80.70
59572;DHT22;59406;45.602;11.904;2023-04-12T02:46:08;20.10;80.60
59572;DHT22;59406;45.602;11.904;2023-04-12T02:48:34;20.10;79.90
59572;DHT22;59406;45.602;11.904;2023-04-12T02:53:29;20.10;78.90
59572;DHT22;59406;45.602;11.904;2023-04-12T02:55:55;20.10;78.80
59572;DHT22;59406;45.602;11.904;2023-04-12T02:58:21;20.10;79.00
59572;DHT22;59406;45.602;11.904;2023-04-12T03:00:49;20.20;79.40
59572;DHT22;59406;45.602;11.904;2023-04-12T03:03:15;20.10;79.00
59572;DHT22;59406;45.602;11.904;2023-04-12T03:05:42;20.10;78.90
59572;DHT22;59406;45.602;11.904;2023-04-12T03:10:45;20.10;78.70
59572;DHT22;59406;45.602;11.904;2023-04-12T03:13:11;20.10;78.70
59572;DHT22;59406;45.602;11.904;2023-04-12T03:15:37;20.10;78.60
59572;DHT22;59406;45.602;11.904;2023-04-12T03:18:02;20.00;79.60
59572;DHT22;59406;45.602;11.904;2023-04-12T03:20:28;20.10;79.50
59572;DHT22;59406;45.602;11.904;2023-04-12T03:22:55;20.00;80.30
59572;DHT22;59406;45.602;11.904;2023-04-12T03:27:50;20.00;80.30
59572;DHT22;59406;45.602;11.904;2023-04-12T03:30:39;20.00;80.00
59572;DHT22;59406;45.602;11.904;2023-04-12T03:33:05;20.10;77.60
59572;DHT22;59406;45.602;11.904;2023-04-12T03:35:31;20.00;78.80
59572;DHT22;59406;45.602;11.904;2023-04-12T03:37:57;20.00;78.20
59572;DHT22;59406;45.602;11.904;2023-04-12T03:40:22;20.00;77.70
59572;DHT22;59406;45.602;11.904;2023-04-12T03:42:48;20.00;77.00
59572;DHT22;59406;45.602;11.904;2023-04-12T03:45:14;20.00;76.90
59572;DHT22;59406;45.602;11.904;2023-04-12T03:47:40;20.00;76.70
59572;DHT22;59406;45.602;11.904;2023-04-12T03:50:06;20.00;77.20
59572;DHT22;59406;45.602;11.904;2023-04-12T03:52:33;19.90;77.10
59572;DHT22;59406;45.602;11.904;2023-04-12T03:54:59;19.90;77.00
59572;DHT22;59406;45.602;11.904;2023-04-12T03:57:25;19.90;77.20
59572;DHT22;59406;45.602;11.904;2023-04-12T03:59:51;19.90;77.40
59572;DHT22;59406;45.602;11.904;2023-04-12T04:04:42;19.90;77.40
59572;DHT22;59406;45.602;11.904;2023-04-12T04:07:10;20.00;78.00
59572;DHT22;59406;45.602;11.904;2023-04-12T04:09:36;20.00;77.80
59572;DHT22;59406;45.602;11.904;2023-04-12T04:12:02;19.90;77.70
59572;DHT22;59406;45.602;11.904;2023-04-12T04:14:27;19.90;77.90
59572;DHT22;59406;45.602;11.904;2023-04-12T04:16:53;19.90;78.10
59572;DHT22;59406;45.602;11.904;2023-04-12T04:19:20;19.90;77.70
59572;DHT22;59406;45.602;11.904;2023-04-12T04:21:46;19.80;78.20
59572;DHT22;59406;45.602;11.904;2023-04-12T04:24:14;19.90;78.40
59572;DHT22;59406;45.602;11.904;2023-04-12T04:26:43;19.80;78.20
59572;DHT22;59406;45.602;11.904;2023-04-12T04:29:10;19.90;78.10
59572;DHT22;59406;45.602;11.904;2023-04-12T04:31:36;19.90;78.20
59572;DHT22;59406;45.602;11.904;2023-04-12T04:34:03;19.80;77.90
59572;DHT22;59406;45.602;11.904;2023-04-12T04:36:33;19.90;77.60
59572;DHT22;59406;45.602;11.904;2023-04-12T04:38:59;19.90;77.70
59572;DHT22;59406;45.602;11.904;2023-04-12T04:41:26;19.80;78.40
59572;DHT22;59406;45.602;11.904;2023-04-12T04:43:52;19.90;78.50
59572;DHT22;59406;45.602;11.904;2023-04-12T04:46:20;19.90;78.80
59572;DHT22;59406;45.602;11.904;2023-04-12T04:48:47;19.80;79.90
59572;DHT22;59406;45.602;11.904;2023-04-12T04:51:14;19.90;79.70
59572;DHT22;59406;45.602;11.904;2023-04-12T04:53:40;19.90;80.00
59572;DHT22;59406;45.602;11.904;2023-04-12T04:56:06;19.80;80.70
59572;DHT22;59406;45.602;11.904;2023-04-12T04:58:32;19.80;80.20
59572;DHT22;59406;45.602;11.904;2023-04-12T05:00:58;19.80;79.60
59572;DHT22;59406;45.602;11.904;2023-04-12T05:03:24;19.80;79.00
59572;DHT22;59406;45.602;11.904;2023-04-12T05:05:54;19.80;79.00
59572;DHT22;59406;45.602;11.904;2023-04-12T05:08:21;19.80;78.70
59572;DHT22;59406;45.602;11.904;2023-04-12T05:10:50;19.80;78.10
59572;DHT22;59406;45.602;11.904;2023-04-12T05:13:17;19.90;77.50
59572;DHT22;59406;45.602;11.904;2023-04-12T05:15:43;19.80;78.00
59572;DHT22;59406;45.602;11.904;2023-04-12T05:18:09;19.80;77.80
59572;DHT22;59406;45.602;11.904;2023-04-12T05:20:38;19.80;77.60
59572;DHT22;59406;45.602;11.904;2023-04-12T05:23:04;19.80;77.40
59572;DHT22;59406;45.602;11.904;2023-04-12T05:25:30;19.80;77.50
59572;DHT22;59406;45.602;11.904;2023-04-12T05:27:58;19.80;77.70
59572;DHT22;59406;45.602;11.904;2023-04-12T05:32:58;19.80;78.10
59572;DHT22;59406;45.602;11.904;2023-04-12T05:35:24;19.80;78.80
59572;DHT22;59406;45.602;11.904;2023-04-12T05:37:49;19.90;79.10
59572;DHT22;59406;45.602;11.904;2023-04-12T05:40:15;19.80;78.90
59572;DHT22;59406;45.602;11.904;2023-04-12T05:42:41;19.80;79.10
59572;DHT22;59406;45.602;11.904;2023-04-12T05:45:07;19.80;78.80
59572;DHT22;59406;45.602;11.904;2023-04-12T05:47:35;19.80;78.70
59572;DHT22;59406;45.602;11.904;2023-04-12T05:50:01;19.90;78.10
59572;DHT22;59406;45.602;11.904;2023-04-12T05:52:27;19.90;78.10
59572;DHT22;59406;45.602;11.904;2023-04-12T05:54:52;19.80;79.10
59572;DHT22;59406;45.602;11.904;2023-04-12T05:57:18;19.90;79.00
59572;DHT22;59406;45.602;11.904;2023-04-12T05:59:44;19.90;80.20
59572;DHT22;59406;45.602;11.904;2023-04-12T06:02:10;19.80;80.50
59572;DHT22;59406;45.602;11.904;2023-04-12T06:04:37;19.90;81.00
59572;DHT22;59406;45.602;11.904;2023-04-12T06:07:05;19.90;81.30
59572;DHT22;59406;45.602;11.904;2023-04-12T06:09:31;19.90;80.80
59572;DHT22;59406;45.602;11.904;2023-04-12T06:11:57;19.90;81.10
59572;DHT22;59406;45.602;11.904;2023-04-12T06:14:23;20.00;81.80
59572;DHT22;59406;45.602;11.904;2023-04-12T06:16:49;19.90;82.20
59572;DHT22;59406;45.602;11.904;2023-04-12T06:19:15;19.90;82.60
59572;DHT22;59406;45.602;11.904;2023-04-12T06:21:41;19.90;82.90
59572;DHT22;59406;45.602;11.904;2023-04-12T06:24:07;20.00;82.80
59572;DHT22;59406;45.602;11.904;2023-04-12T06:26:34;19.90;82.80
59572;DHT22;59406;45.602;11.904;2023-04-12T06:29:00;19.90;83.20
59572;DHT22;59406;45.602;11.904;2023-04-12T06:31:26;20.00;83.10
59572;DHT22;59406;45.602;11.904;2023-04-12T06:33:52;19.90;83.00
59572;DHT22;59406;45.602;11.904;2023-04-12T06:36:18;19.90;83.10
59572;DHT22;59406;45.602;11.904;2023-04-12T06:38:44;19.90;83.00
59572;DHT22;59406;45.602;11.904;2023-04-12T06:43:35;19.90;83.20
59572;DHT22;59406;45.602;11.904;2023-04-12T06:46:02;19.90;83.20
59572;DHT22;59406;45.602;11.904;2023-04-12T06:48:28;19.90;83.10
59572;DHT22;59406;45.602;11.904;2023-04-12T06:50:54;20.00;82.90
59572;DHT22;59406;45.602;11.904;2023-04-12T06:53:20;20.00;83.00
59572;DHT22;59406;45.602;11.904;2023-04-12T06:55:47;20.00;82.80
59572;DHT22;59406;45.602;11.904;2023-04-12T06:58:13;20.00;83.10
59572;DHT22;59406;45.602;11.904;2023-04-12T07:00:39;19.90;82.90
59572;DHT22;59406;45.602;11.904;2023-04-12T07:03:05;20.00;83.00
59572;DHT22;59406;45.602;11.904;2023-04-12T07:05:31;20.10;83.30
59572;DHT22;59406;45.602;11.904;2023-04-12T07:07:57;20.00;83.40
59572;DHT22;59406;45.602;11.904;2023-04-12T07:10:23;20.00;83.50
59572;DHT22;59406;45.602;11.904;2023-04-12T07:12:48;20.10;83.50
59572;DHT22;59406;45.602;11.904;2023-04-12T07:15:16;20.00;83.50
59572;DHT22;59406;45.602;11.904;2023-04-12T07:17:42;20.10;83.50
59572;DHT22;59406;45.602;11.904;2023-04-12T07:20:09;20.00;83.40
59572;DHT22;59406;45.602;11.904;2023-04-12T07:22:35;20.10;83.30
59572;DHT22;59406;45.602;11.904;2023-04-12T07:25:01;20.10;83.20
59572;DHT22;59406;45.602;11.904;2023-04-12T07:27:27;20.10;83.40
59572;DHT22;59406;45.602;11.904;2023-04-12T07:29:53;20.00;83.40
59572;DHT22;59406;45.602;11.904;2023-04-12T07:32:19;20.10;83.30
59572;DHT22;59406;45.602;11.904;2023-04-12T07:34:45;20.10;83.40
59572;DHT22;59406;45.602;11.904;2023-04-12T07:37:11;20.20;83.50
59572;DHT22;59406;45.602;11.904;2023-04-12T07:39:37;20.10;83.60
59572;DHT22;59406;45.602;11.904;2023-04-12T07:42:05;20.10;83.50
59572;DHT22;59406;45.602;11.904;2023-04-12T07:47:03;20.10;83.30
59572;DHT22;59406;45.602;11.904;2023-04-12T07:49:34;20.20;83.60
59572;DHT22;59406;45.602;11.904;2023-04-12T07:52:00;20.20;84.20
59572;DHT22;59406;45.602;11.904;2023-04-12T07:54:27;20.10;83.60
59572;DHT22;59406;45.602;11.904;2023-04-12T07:57:11;20.10;83.60
59572;DHT22;59406;45.602;11.904;2023-04-12T07:59:37;20.20;84.60
59572;DHT22;59406;45.602;11.904;2023-04-12T08:02:03;20.20;83.50
59572;DHT22;59406;45.602;11.904;2023-04-12T08:04:32;20.20;83.40
59572;DHT22;59406;45.602;11.904;2023-04-12T08:06:58;20.20;82.50
59572;DHT22;59406;45.602;11.904;2023-04-12T08:09:24;20.20;82.60
59572;DHT22;59406;45.602;11.904;2023-04-12T08:11:49;20.20;82.60
59572;DHT22;59406;45.602;11.904;2023-04-12T08:14:15;20.20;82.30
59572;DHT22;59406;45.602;11.904;2023-04-12T08:16:41;20.30;81.70
59572;DHT22;59406;45.602;11.904;2023-04-12T08:19:07;20.20;81.00
59572;DHT22;59406;45.602;11.904;2023-04-12T08:21:33;20.30;82.10
59572;DHT22;59406;45.602;11.904;2023-04-12T08:23:59;20.20;81.50
59572;DHT22;59406;45.602;11.904;2023-04-12T08:26:25;20.20;80.10
59572;DHT22;59406;45.602;11.904;2023-04-12T08:28:52;20.20;79.90
59572;DHT22;59406;45.602;11.904;2023-04-12T08:31:18;20.20;80.20
59572;DHT22;59406;45.602;11.904;2023-04-12T08:33:44;20.30;81.70
59572;DHT22;59406;45.602;11.904;2023-04-12T08:36:10;20.30;82.00
59572;DHT22;59406;45.602;11.904;2023-04-12T08:38:36;20.30;82.10
59572;DHT22;59406;45.602;11.904;2023-04-12T08:41:04;20.40;81.70
59572;DHT22;59406;45.602;11.904;2023-04-12T08:43:32;20.30;79.00
59572;DHT22;59406;45.602;11.904;2023-04-12T08:45:59;20.10;78.40
59572;DHT22;59406;45.602;11.904;2023-04-12T08:48:26;20.20;79.00
59572;DHT22;59406;45.602;11.904;2023-04-12T08:50:57;20.20;79.00
59572;DHT22;59406;45.602;11.904;2023-04-12T08:53:23;20.20;79.60
59572;DHT22;59406;45.602;11.904;2023-04-12T08:55:48;20.20;80.90
59572;DHT22;59406;45.602;11.904;2023-04-12T08:58:15;20.20;81.50
59572;DHT22;59406;45.602;11.904;2023-04-12T09:00:41;20.20;81.80
59572;DHT22;59406;45.602;11.904;2023-04-12T09:03:09;20.30;81.90
59572;DHT22;59406;45.602;11.904;2023-04-12T09:05:35;20.20;81.00
59572;DHT22;59406;45.602;11.904;2023-04-12T09:08:01;20.20;79.80
59572;DHT22;59406;45.602;11.904;2023-04-12T09:10:35;20.10;78.60
59572;DHT22;59406;45.602;11.904;2023-04-12T09:13:03;20.20;79.70
59572;DHT22;59406;45.602;11.904;2023-04-12T09:15:30;20.10;78.30
59572;DHT22;59406;45.602;11.904;2023-04-12T09:18:04;20.20;78.40
59572;DHT22;59406;45.602;11.904;2023-04-12T09:20:30;20.20;77.00
59572;DHT22;59406;45.602;11.904;2023-04-12T09:22:57;20.10;78.40
59572;DHT22;59406;45.602;11.904;2023-04-12T09:25:39;20.10;77.40
59572;DHT22;59406;45.602;11.904;2023-04-12T09:28:27;20.20;76.90
59572;DHT22;59406;45.602;11.904;2023-04-12T09:30:56;20.10;76.00
59572;DHT22;59406;45.602;11.904;2023-04-12T09:33:37;20.10;76.90
59572;DHT22;59406;45.602;11.904;2023-04-12T09:36:05;20.10;75.80
59572;DHT22;59406;45.602;11.904;2023-04-12T09:41:20;20.10;76.70
59572;DHT22;59406;45.602;11.904;2023-04-12T09:43:50;20.10;75.00
59572;DHT22;59406;45.602;11.904;2023-04-12T09:46:16;20.10;76.60
59572;DHT22;59406;45.602;11.904;2023-04-12T09:48:53;20.20;76.10
59572;DHT22;59406;45.602;11.904;2023-04-12T09:51:34;20.10;75.60
59572;DHT22;59406;45.602;11.904;2023-04-12T09:54:03;20.10;75.70
59572;DHT22;59406;45.602;11.904;2023-04-12T09:59:05;20.10;76.40
59572;DHT22;59406;45.602;11.904;2023-04-12T10:04:07;20.10;76.50
59572;DHT22;59406;45.602;11.904;2023-04-12T10:06:34;20.10;75.80
59572;DHT22;59406;45.602;11.904;2023-04-12T10:11:31;20.10;75.90
59572;DHT22;59406;45.602;11.904;2023-04-12T10:13:58;20.00;75.70
59572;DHT22;59406;45.602;11.904;2023-04-12T10:16:27;20.10;75.40
59572;DHT22;59406;45.602;11.904;2023-04-12T10:21:22;20.10;75.70
59572;DHT22;59406;45.602;11.904;2023-04-12T10:23:49;20.00;75.70
59572;DHT22;59406;45.602;11.904;2023-04-12T10:26:16;20.10;75.80
59572;DHT22;59406;45.602;11.904;2023-04-12T10:28:43;20.10;75.70
59572;DHT22;59406;45.602;11.904;2023-04-12T10:31:30;20.10;76.00
59572;DHT22;59406;45.602;11.904;2023-04-12T10:34:02;20.10;75.20
59572;DHT22;59406;45.602;11.904;2023-04-12T10:39:15;20.10;74.50
59572;DHT22;59406;45.602;11.904;2023-04-12T10:44:44;20.00;73.80
59572;DHT22;59406;45.602;11.904;2023-04-12T10:47:11;20.00;75.00
59572;DHT22;59406;45.602;11.904;2023-04-12T10:49:38;20.00;75.70
59572;DHT22;59406;45.602;11.904;2023-04-12T10:54:32;20.10;75.50
59572;DHT22;59406;45.602;11.904;2023-04-12T10:57:05;20.10;75.50
59572;DHT22;59406;45.602;11.904;2023-04-12T10:59:50;20.10;75.60
59572;DHT22;59406;45.602;11.904;2023-04-12T11:02:16;20.10;75.50
59572;DHT22;59406;45.602;11.904;2023-04-12T11:05:08;20.00;75.50
59572;DHT22;59406;45.602;11.904;2023-04-12T11:07:43;20.00;74.50
59572;DHT22;59406;45.602;11.904;2023-04-12T11:10:14;20.10;74.30
59572;DHT22;59406;45.602;11.904;2023-04-12T11:12:47;20.00;75.50
59572;DHT22;59406;45.602;11.904;2023-04-12T11:15:13;20.10;76.00
59572;DHT22;59406;45.602;11.904;2023-04-12T11:17:40;20.00;76.60
59572;DHT22;59406;45.602;11.904;2023-04-12T11:20:10;20.10;77.10
59572;DHT22;59406;45.602;11.904;2023-04-12T11:22:37;20.10;77.20
59572;DHT22;59406;45.602;11.904;2023-04-12T11:25:05;20.10;77.20
59572;DHT22;59406;45.602;11.904;2023-04-12T11:27:31;20.10;76.50
59572;DHT22;59406;45.602;11.904;2023-04-12T11:29:58;20.10;76.20
59572;DHT22;59406;45.602;11.904;2023-04-12T11:32:27;20.10;75.50
59572;DHT22;59406;45.602;11.904;2023-04-12T11:34:54;20.20;76.30
59572;DHT22;59406;45.602;11.904;2023-04-12T11:37:22;20.20;76.70
59572;DHT22;59406;45.602;11.904;2023-04-12T11:39:51;20.10;75.90
59572;DHT22;59406;45.602;11.904;2023-04-12T11:42:19;20.20;75.30
59572;DHT22;59406;45.602;11.904;2023-04-12T11:44:46;20.10;75.40
59572;DHT22;59406;45.602;11.904;2023-04-12T11:47:19;20.10;75.70
59572;DHT22;59406;45.602;11.904;2023-04-12T11:49:54;20.20;75.00
59572;DHT22;59406;45.602;11.904;2023-04-12T11:52:22;20.10;75.10
59572;DHT22;59406;45.602;11.904;2023-04-12T11:54:51;20.20;75.20
59572;DHT22;59406;45.602;11.904;2023-04-12T11:57:21;20.20;75.40
59572;DHT22;59406;45.602;11.904;2023-04-12T11:59:47;20.20;75.20
59572;DHT22;59406;45.602;11.904;2023-04-12T12:02:16;20.20;76.10
59572;DHT22;59406;45.602;11.904;2023-04-12T12:04:47;20.20;75.20
59572;DHT22;59406;45.602;11.904;2023-04-12T12:07:16;20.20;75.20
59572;DHT22;59406;45.602;11.904;2023-04-12T12:09:43;20.30;74.90
59572;DHT22;59406;45.602;11.904;2023-04-12T12:12:13;20.20;74.70
59572;DHT22;59406;45.602;11.904;2023-04-12T12:14:39;20.30;76.10
59572;DHT22;59406;45.602;11.904;2023-04-12T12:17:10;20.20;74.70
59572;DHT22;59406;45.602;11.904;2023-04-12T12:19:41;20.20;74.90
59572;DHT22;59406;45.602;11.904;2023-04-12T12:24:37;20.30;75.90
59572;DHT22;59406;45.602;11.904;2023-04-12T12:27:03;20.20;75.60
59572;DHT22;59406;45.602;11.904;2023-04-12T12:29:36;20.30;74.40
59572;DHT22;59406;45.602;11.904;2023-04-12T12:32:09;20.40;75.70
59572;DHT22;59406;45.602;11.904;2023-04-12T12:34:36;20.40;73.90
59572;DHT22;59406;45.602;11.904;2023-04-12T12:37:06;20.40;76.10
59572;DHT22;59406;45.602;11.904;2023-04-12T12:39:32;20.30;76.20
59572;DHT22;59406;45.602;11.904;2023-04-12T12:41:58;20.30;75.20
59572;DHT22;59406;45.602;11.904;2023-04-12T12:44:24;20.40;73.90
59572;DHT22;59406;45.602;11.904;2023-04-12T12:46:50;20.30;75.40
59572;DHT22;59406;45.602;11.904;2023-04-12T12:49:17;20.30;75.90
59572;DHT22;59406;45.602;11.904;2023-04-12T12:51:43;20.40;75.50
59572;DHT22;59406;45.602;11.904;2023-04-12T12:54:09;20.40;75.20
59572;DHT22;59406;45.602;11.904;2023-04-12T12:56:35;20.40;75.30
59572;DHT22;59406;45.602;11.904;2023-04-12T12:59:01;20.30;75.70
59572;DHT22;59406;45.602;11.904;2023-04-12T13:01:27;20.40;74.60
59572;DHT22;59406;45.602;11.904;2023-04-12T13:03:53;20.30;75.50
59572;DHT22;59406;45.602;11.904;2023-04-12T13:06:19;20.40;76.00
59572;DHT22;59406;45.602;11.904;2023-04-12T13:08:45;20.40;77.00
59572;DHT22;59406;45.602;11.904;2023-04-12T13:11:11;20.40;75.50
59572;DHT22;59406;45.602;11.904;2023-04-12T13:13:37;20.40;75.00
59572;DHT22;59406;45.602;11.904;2023-04-12T13:16:03;20.30;75.30
59572;DHT22;59406;45.602;11.904;2023-04-12T13:18:29;20.40;74.50
59572;DHT22;59406;45.602;11.904;2023-04-12T13:20:54;20.50;74.00
59572;DHT22;59406;45.602;11.904;2023-04-12T13:23:21;20.40;74.10
59572;DHT22;59406;45.602;11.904;2023-04-12T13:25:46;20.40;74.10
59572;DHT22;59406;45.602;11.904;2023-04-12T13:28:12;20.40;73.70
59572;DHT22;59406;45.602;11.904;2023-04-12T13:30:41;20.40;74.50
59572;DHT22;59406;45.602;11.904;2023-04-12T13:33:07;20.40;74.80
59572;DHT22;59406;45.602;11.904;2023-04-12T13:35:34;20.40;74.40
59572;DHT22;59406;45.602;11.904;2023-04-12T13:38:00;20.40;75.60
59572;DHT22;59406;45.602;11.904;2023-04-12T13:40:26;20.40;76.60
59572;DHT22;59406;45.602;11.904;2023-04-12T13:42:52;20.50;77.20
59572;DHT22;59406;45.602;11.904;2023-04-12T13:45:17;20.40;76.70
59572;DHT22;59406;45.602;11.904;2023-04-12T13:47:43;20.50;77.50
59572;DHT22;59406;45.602;11.904;2023-04-12T13:50:09;20.40;77.50
59572;DHT22;59406;45.602;11.904;2023-04-12T13:52:35;20.50;76.00
59572;DHT22;59406;45.602;11.904;2023-04-12T13:55:01;20.40;75.70
59572;DHT22;59406;45.602;11.904;2023-04-12T13:57:29;20.40;75.10
59572;DHT22;59406;45.602;11.904;2023-04-12T13:59:55;20.50;74.60
59572;DHT22;59406;45.602;11.904;2023-04-12T14:02:20;20.50;75.00
59572;DHT22;59406;45.602;11.904;2023-04-12T14:04:50;20.50;74.30
59572;DHT22;59406;45.602;11.904;2023-04-12T14:07:17;20.40;74.30
59572;DHT22;59406;45.602;11.904;2023-04-12T14:09:43;20.40;74.20
59572;DHT22;59406;45.602;11.904;2023-04-12T14:12:09;20.40;74.30
59572;DHT22;59406;45.602;11.904;2023-04-12T14:17:05;20.40;73.90
59572;DHT22;59406;45.602;11.904;2023-04-12T14:19:31;20.40;74.50
59572;DHT22;59406;45.602;11.904;2023-04-12T14:21:57;20.40;73.90
59572;DHT22;59406;45.602;11.904;2023-04-12T14:24:23;20.40;73.60
59572;DHT22;59406;45.602;11.904;2023-04-12T14:26:49;20.40;73.40
59572;DHT22;59406;45.602;11.904;2023-04-12T14:29:15;20.40;73.80
59572;DHT22;59406;45.602;11.904;2023-04-12T14:31:41;20.40;74.40
59572;DHT22;59406;45.602;11.904;2023-04-12T14:34:08;20.50;75.40
59572;DHT22;59406;45.602;11.904;2023-04-12T14:36:35;20.50;75.00
59572;DHT22;59406;45.602;11.904;2023-04-12T14:39:01;20.40;74.80
59572;DHT22;59406;45.602;11.904;2023-04-12T14:41:29;20.50;75.00
59572;DHT22;59406;45.602;11.904;2023-04-12T14:43:58;20.50;74.10
59572;DHT22;59406;45.602;11.904;2023-04-12T14:46:25;20.50;74.60
59572;DHT22;59406;45.602;11.904;2023-04-12T14:48:53;20.50;75.20
59572;DHT22;59406;45.602;11.904;2023-04-12T14:51:19;20.50;75.10
59572;DHT22;59406;45.602;11.904;2023-04-12T14:53:45;20.40;74.50
59572;DHT22;59406;45.602;11.904;2023-04-12T14:56:21;20.50;75.30
59572;DHT22;59406;45.602;11.904;2023-04-12T14:58:50;20.50;74.60
59572;DHT22;59406;45.602;11.904;2023-04-12T15:01:19;20.50;75.40
59572;DHT22;59406;45.602;11.904;2023-04-12T15:03:45;20.40;75.10
59572;DHT22;59406;45.602;11.904;2023-04-12T15:06:12;20.40;74.40
59572;DHT22;59406;45.602;11.904;2023-04-12T15:08:38;20.50;74.40
59572;DHT22;59406;45.602;11.904;2023-04-12T15:11:11;20.40;74.60
59572;DHT22;59406;45.602;11.904;2023-04-12T15:13:40;20.50;74.20
59572;DHT22;59406;45.602;11.904;2023-04-12T15:16:10;20.50;73.80
59572;DHT22;59406;45.602;11.904;2023-04-12T15:18:39;20.40;74.20
59572;DHT22;59406;45.602;11.904;2023-04-12T15:21:07;20.40;73.70
59572;DHT22;59406;45.602;11.904;2023-04-12T15:23:34;20.40;73.50
59572;DHT22;59406;45.602;11.904;2023-04-12T15:26:01;20.40;73.90
59572;DHT22;59406;45.602;11.904;2023-04-12T15:28:27;20.40;73.90
59572;DHT22;59406;45.602;11.904;2023-04-12T15:30:54;20.40;73.60
59572;DHT22;59406;45.602;11.904;2023-04-12T15:33:20;20.40;74.10
59572;DHT22;59406;45.602;11.904;2023-04-12T15:35:49;20.40;74.30
59572;DHT22;59406;45.602;11.904;2023-04-12T15:38:15;20.40;74.50
59572;DHT22;59406;45.602;11.904;2023-04-12T15:40:42;20.40;74.10
59572;DHT22;59406;45.602;11.904;2023-04-12T15:43:08;20.40;73.70
59572;DHT22;59406;45.602;11.904;2023-04-12T15:45:34;20.40;73.70
59572;DHT22;59406;45.602;11.904;2023-04-12T15:47:59;20.30;73.90
59572;DHT22;59406;45.602;11.904;2023-04-12T15:50:32;20.50;73.70
59572;DHT22;59406;45.602;11.904;2023-04-12T15:52:58;20.40;73.80
59572;DHT22;59406;45.602;11.904;2023-04-12T15:55:24;20.40;74.30
59572;DHT22;59406;45.602;11.904;2023-04-12T15:57:50;20.50;74.90
59572;DHT22;59406;45.602;11.904;2023-04-12T16:00:16;20.50;74.60
59572;DHT22;59406;45.602;11.904;2023-04-12T16:02:52;20.40;74.80
59572;DHT22;59406;45.602;11.904;2023-04-12T16:05:20;20.40;75.00
59572;DHT22;59406;45.602;11.904;2023-04-12T16:07:46;20.50;74.70
59572;DHT22;59406;45.602;11.904;2023-04-12T16:10:18;20.50;74.20
59572;DHT22;59406;45.602;11.904;2023-04-12T16:12:50;20.50;74.20
59572;DHT22;59406;45.602;11.904;2023-04-12T16:15:17;20.50;75.00